Time;durP1;ratioP1;P1;durP2;ratioP2;P2;SDS_P1;SDS_P2;PMS_P1;PMS_P2;Temp;Humidity;BMP_temperature;BMP_pressure;BME280_temperature;BME280_humidity;BME280_pressure;Samples;Min_cycle;Max_cycle;Signal;HPM_P1;HPM_P2
2024/04/09 00:02:33;;;;;;;9.97;6.57;;;17.40;99.90;;;;;;5056405;28;20265;-75
2024/04/09 00:13:42;;;;;;;11.60;6.73;;;17.30;99.90;;;;;;5071334;28;20222;-75
2024/04/09 00:28:27;;;;;;;13.33;7.23;;;17.00;99.90;;;;;;5069510;28;20669;-75
2024/04/09 00:31:18;;;;;;;11.10;7.40;;;16.90;99.90;;;;;;5056346;28;20197;-75
2024/04/09 00:34:16;;;;;;;13.53;6.80;;;16.80;99.90;;;;;;5055750;28;20217;-75
2024/04/09 00:38:06;;;;;;;14.10;7.23;;;16.80;99.90;;;;;;5070383;28;20213;-75
2024/04/09 00:40:57;;;;;;;11.70;7.27;;;16.70;99.90;;;;;;5073074;28;20282;-74
2024/04/09 00:44:37;;;;;;;13.87;7.50;;;16.70;99.90;;;;;;5090809;28;20189;-75
2024/04/09 00:51:01;;;;;;;12.57;7.10;;;16.50;99.90;;;;;;5090753;28;20232;-74
2024/04/09 00:53:59;;;;;;;11.90;7.13;;;16.50;99.90;;;;;;5074755;28;20189;-75
2024/04/09 00:57:52;;;;;;;15.87;8.47;;;16.40;99.90;;;;;;5094307;28;20234;-76
2024/04/09 01:01:27;;;;;;;18.23;8.90;;;16.40;99.90;;;;;;5094060;28;20253;-76
2024/04/09 01:05:07;;;;;;;17.03;8.10;;;16.30;99.90;;;;;;5079305;28;20221;-75
2024/04/09 01:08:00;;;;;;;14.47;9.10;;;16.30;99.90;;;;;;5079481;28;20197;-75
2024/04/09 01:10:49;;;;;;;15.37;9.20;;;16.20;99.90;;;;;;5079356;28;20224;-74
2024/04/09 01:17:15;;;;;;;17.43;9.50;;;16.10;99.90;;;;;;5079877;28;20694;-75
2024/04/09 01:20:29;;;;;;;23.77;14.07;;;16.10;99.90;;;;;;5093695;28;20201;-75
2024/04/09 01:23:17;;;;;;;21.97;12.07;;;16.00;99.90;;;;;;5080210;28;20198;-76
2024/04/09 01:26:04;;;;;;;27.73;14.50;;;15.90;99.90;;;;;;5064522;28;20186;-76
2024/04/09 01:28:51;;;;;;;23.47;12.57;;;15.90;99.90;;;;;;5066271;28;20197;-75
2024/04/09 01:31:38;;;;;;;22.60;13.00;;;15.80;99.90;;;;;;5063779;28;20209;-74
2024/04/09 01:34:25;;;;;;;20.50;11.57;;;15.70;99.90;;;;;;5063735;28;20224;-74
2024/04/09 01:37:12;;;;;;;19.67;11.40;;;15.70;99.90;;;;;;5078716;28;20202;-75
2024/04/09 01:39:58;;;;;;;25.00;12.40;;;15.70;99.90;;;;;;5078959;28;20192;-75
2024/04/09 01:42:45;;;;;;;19.10;11.57;;;15.60;99.90;;;;;;5078726;28;20190;-75
2024/04/09 01:45:31;;;;;;;14.87;9.20;;;15.60;99.90;;;;;;5079819;28;20197;-74
2024/04/09 01:48:18;;;;;;;29.70;13.20;;;15.60;99.90;;;;;;5079254;28;20199;-75
2024/04/09 01:51:13;;;;;;;21.70;10.23;;;15.60;99.90;;;;;;5064259;28;20219;-75
2024/04/09 01:54:00;;;;;;;20.50;10.47;;;15.60;99.90;;;;;;5077951;28;20211;-75
2024/04/09 01:56:46;;;;;;;25.90;11.00;;;15.60;99.90;;;;;;5078525;28;20596;-75
2024/04/09 01:59:32;;;;;;;22.87;10.87;;;15.50;99.90;;;;;;5078305;28;20196;-75
2024/04/09 02:02:19;;;;;;;30.87;13.93;;;15.50;99.90;;;;;;5078505;28;20706;-74
2024/04/09 02:05:07;;;;;;;16.43;8.07;;;15.50;99.90;;;;;;5078127;28;20202;-74
2024/04/09 02:07:54;;;;;;;12.97;7.73;;;15.50;99.90;;;;;;5077790;28;20189;-74
2024/04/09 02:10:41;;;;;;;13.87;8.20;;;15.50;99.90;;;;;;5077447;28;20185;-74
2024/04/09 02:13:30;;;;;;;12.47;8.13;;;15.50;99.90;;;;;;5078051;28;20227;-74
2024/04/09 02:16:16;;;;;;;38.30;17.20;;;15.40;99.90;;;;;;5077453;28;20263;-74
2024/04/09 02:19:03;;;;;;;16.93;8.93;;;15.40;99.90;;;;;;5077881;28;20209;-74
2024/04/09 02:21:50;;;;;;;16.97;8.30;;;15.30;99.90;;;;;;5051339;28;20447;-74
2024/04/09 02:24:37;;;;;;;11.93;7.60;;;15.30;99.90;;;;;;5077794;28;20664;-74
2024/04/09 02:27:24;;;;;;;12.43;7.43;;;15.20;99.90;;;;;;5062471;28;20189;-74
2024/04/09 02:30:11;;;;;;;12.57;8.23;;;15.20;99.90;;;;;;5063409;28;20193;-74
2024/04/09 02:32:57;;;;;;;14.10;7.90;;;15.20;99.90;;;;;;5063280;28;20225;-74
2024/04/09 02:35:58;;;;;;;16.47;8.60;;;15.20;99.90;;;;;;5077613;28;20220;-74
2024/04/09 02:38:45;;;;;;;13.13;7.50;;;15.20;99.90;;;;;;5063540;28;20193;-74
2024/04/09 02:41:31;;;;;;;12.80;7.67;;;15.20;99.90;;;;;;5062872;28;20237;-74
2024/04/09 02:44:18;;;;;;;11.23;7.90;;;15.10;99.90;;;;;;5077417;28;20189;-74
2024/04/09 02:47:04;;;;;;;14.10;8.37;;;15.20;99.90;;;;;;5077368;28;20200;-74
2024/04/09 02:49:53;;;;;;;11.93;7.87;;;15.10;99.90;;;;;;5076820;28;20221;-74
2024/04/09 02:52:39;;;;;;;12.60;8.07;;;15.10;99.90;;;;;;5063445;28;20228;-74
2024/04/09 02:55:26;;;;;;;13.03;7.77;;;15.00;99.90;;;;;;5076446;28;20197;-75
2024/04/09 02:58:13;;;;;;;13.33;8.40;;;15.00;99.90;;;;;;5077220;28;20189;-75
2024/04/09 03:01:07;;;;;;;14.60;8.47;;;14.90;99.90;;;;;;5077248;28;20537;-75
2024/04/09 03:03:54;;;;;;;11.73;7.97;;;14.90;99.90;;;;;;5062158;28;20599;-75
2024/04/09 03:06:40;;;;;;;12.00;8.03;;;14.80;99.90;;;;;;5063300;28;20192;-75
2024/04/09 03:09:27;;;;;;;12.37;7.57;;;14.70;99.90;;;;;;5062754;28;20199;-74
2024/04/09 03:12:13;;;;;;;15.57;8.07;;;14.70;99.90;;;;;;5063039;28;20218;-74
2024/04/09 03:15:00;;;;;;;15.13;8.00;;;14.70;99.90;;;;;;5077060;28;20190;-75
2024/04/09 03:17:46;;;;;;;13.87;8.10;;;14.70;99.90;;;;;;5062464;28;20189;-74
2024/04/09 03:20:33;;;;;;;13.73;8.00;;;14.60;99.90;;;;;;5076861;28;20220;-75
2024/04/09 03:23:19;;;;;;;11.17;7.87;;;14.60;99.90;;;;;;5077030;28;20548;-74
2024/04/09 03:26:06;;;;;;;11.80;7.70;;;14.60;99.90;;;;;;5076314;28;20231;-75
2024/04/09 03:28:53;;;;;;;12.03;8.03;;;14.50;99.90;;;;;;5076658;28;20700;-74
2024/04/09 03:31:39;;;;;;;14.10;7.93;;;14.50;99.90;;;;;;5076799;28;20559;-75
2024/04/09 03:34:25;;;;;;;11.73;7.90;;;14.50;99.90;;;;;;5062291;28;20584;-75
2024/04/09 03:37:12;;;;;;;11.30;8.13;;;14.40;99.90;;;;;;5077313;28;20193;-75
2024/04/09 03:39:58;;;;;;;12.83;8.30;;;14.40;99.90;;;;;;5075537;28;20653;-76
2024/04/09 03:42:45;;;;;;;14.57;8.20;;;14.30;99.90;;;;;;5063382;28;20200;-75
2024/04/09 03:45:31;;;;;;;13.43;8.33;;;14.10;99.90;;;;;;5076109;28;20854;-75
2024/04/09 03:48:18;;;;;;;13.27;8.10;;;14.20;99.90;;;;;;5075544;28;20208;-76
2024/04/09 03:51:04;;;;;;;15.43;8.00;;;14.20;99.90;;;;;;5062610;28;20199;-76
2024/04/09 03:53:51;;;;;;;12.63;7.83;;;14.20;99.90;;;;;;5062006;28;20254;-76
2024/04/09 03:56:37;;;;;;;12.20;7.80;;;14.20;99.90;;;;;;5062074;28;20188;-75
2024/04/09 03:59:24;;;;;;;15.07;8.23;;;14.10;99.90;;;;;;5062104;28;20653;-75
2024/04/09 04:02:10;;;;;;;12.43;8.03;;;14.10;99.90;;;;;;5076519;28;20606;-75
2024/04/09 04:04:57;;;;;;;13.13;8.27;;;14.10;99.90;;;;;;5076327;28;20216;-75
2024/04/09 04:07:44;;;;;;;13.27;7.93;;;14.00;99.90;;;;;;5075929;28;20190;-75
2024/04/09 04:10:30;;;;;;;14.27;8.63;;;14.00;99.90;;;;;;5076546;28;20565;-75
2024/04/09 04:13:16;;;;;;;15.00;8.67;;;14.00;99.90;;;;;;5075542;28;20749;-75
2024/04/09 04:16:04;;;;;;;14.57;8.67;;;13.90;99.90;;;;;;5061893;28;20186;-75
2024/04/09 04:18:50;;;;;;;12.30;8.30;;;13.90;99.90;;;;;;5075508;28;20185;-75
2024/04/09 04:21:37;;;;;;;13.17;8.33;;;13.90;99.90;;;;;;5076431;28;20190;-75
2024/04/09 04:24:27;;;;;;;15.17;8.27;;;13.90;99.90;;;;;;5076267;28;20746;-75
2024/04/09 04:27:13;;;;;;;13.37;8.30;;;13.90;99.90;;;;;;5076224;28;20673;-75
2024/04/09 04:30:00;;;;;;;15.37;8.70;;;13.90;99.90;;;;;;5076183;28;20211;-76
2024/04/09 04:32:46;;;;;;;11.80;7.93;;;13.90;99.90;;;;;;5080025;28;20693;-75
2024/04/09 04:35:32;;;;;;;14.30;8.30;;;13.90;99.90;;;;;;5064699;28;20209;-76
2024/04/09 04:38:19;;;;;;;12.57;8.57;;;14.00;99.90;;;;;;5078737;28;20186;-78
2024/04/09 04:41:06;;;;;;;15.47;8.33;;;14.00;99.90;;;;;;5071642;28;20218;-77
2024/04/09 04:43:55;;;;;;;13.20;8.07;;;14.00;99.90;;;;;;5072188;28;20198;-82
2024/04/09 04:46:42;;;;;;;15.17;8.17;;;14.10;99.90;;;;;;5073552;28;20189;-82
2024/04/09 04:49:28;;;;;;;12.63;7.97;;;14.10;99.90;;;;;;5059123;28;20210;-82
2024/04/09 04:52:15;;;;;;;12.97;8.10;;;14.20;99.90;;;;;;5057999;28;20228;-82
2024/04/09 04:55:02;;;;;;;15.47;8.80;;;14.20;99.90;;;;;;5059161;28;20239;-82
2024/04/09 04:57:48;;;;;;;15.23;8.37;;;14.20;99.90;;;;;;5059611;28;20201;-82
2024/04/09 05:00:39;;;;;;;12.93;7.70;;;14.20;99.90;;;;;;5072716;28;20217;-82
2024/04/09 05:03:26;;;;;;;12.70;8.10;;;14.30;99.90;;;;;;5071575;28;20203;-81
2024/04/09 05:06:12;;;;;;;12.77;8.63;;;14.30;99.90;;;;;;5059414;28;20247;-81
2024/04/09 05:08:58;;;;;;;12.47;7.93;;;14.30;99.90;;;;;;5073187;28;20194;-81
2024/04/09 05:11:46;;;;;;;16.90;8.53;;;14.40;99.90;;;;;;5059211;28;20567;-82
2024/04/09 05:14:32;;;;;;;15.23;8.70;;;14.50;99.90;;;;;;5073242;28;20216;-81
2024/04/09 05:17:19;;;;;;;13.93;8.50;;;14.50;99.90;;;;;;5071253;28;20186;-81
2024/04/09 05:20:09;;;;;;;13.20;8.13;;;14.60;99.90;;;;;;5058092;28;20217;-81
2024/04/09 05:22:57;;;;;;;16.43;8.50;;;14.60;99.90;;;;;;5071927;28;20240;-81
2024/04/09 05:25:43;;;;;;;13.93;8.80;;;14.70;99.90;;;;;;5057150;28;20650;-81
2024/04/09 05:28:30;;;;;;;14.77;8.63;;;14.80;99.90;;;;;;5059037;28;20194;-81
2024/04/09 05:31:16;;;;;;;14.20;8.53;;;14.80;99.90;;;;;;5072920;28;20190;-81
2024/04/09 05:34:03;;;;;;;13.50;8.57;;;14.80;99.90;;;;;;5072180;28;20480;-81
2024/04/09 05:36:49;;;;;;;13.40;8.03;;;14.90;99.90;;;;;;5071801;28;20197;-81
2024/04/09 05:39:35;;;;;;;14.03;8.30;;;15.00;99.90;;;;;;5058123;28;20193;-81
2024/04/09 05:42:22;;;;;;;17.33;8.10;;;15.20;99.90;;;;;;5071595;28;20228;-82
2024/04/09 05:45:10;;;;;;;13.03;8.03;;;15.10;99.90;;;;;;5071985;28;20243;-81
2024/04/09 05:47:56;;;;;;;15.43;8.30;;;15.20;99.90;;;;;;5071058;28;20194;-81
2024/04/09 05:50:43;;;;;;;13.97;8.50;;;15.20;99.90;;;;;;5059041;28;20701;-81
2024/04/09 05:53:30;;;;;;;14.00;8.23;;;15.30;99.90;;;;;;5071735;28;20222;-81
2024/04/09 05:56:16;;;;;;;14.43;7.73;;;15.40;99.90;;;;;;5058376;28;20558;-81
2024/04/09 05:59:03;;;;;;;12.07;8.07;;;15.50;99.90;;;;;;5072215;28;20198;-81
2024/04/09 06:01:51;;;;;;;13.80;7.80;;;15.50;99.90;;;;;;5058400;28;20193;-82
2024/04/09 06:04:37;;;;;;;14.87;8.20;;;15.60;99.90;;;;;;5072050;28;20210;-82
2024/04/09 06:07:28;;;;;;;12.93;7.63;;;15.70;99.90;;;;;;5072062;28;20213;-82
2024/04/09 06:10:18;;;;;;;14.67;8.10;;;15.90;99.90;;;;;;5057618;28;20680;-82
2024/04/09 06:13:04;;;;;;;12.33;7.77;;;16.00;99.90;;;;;;5070786;28;20240;-81
2024/04/09 06:15:51;;;;;;;14.67;7.47;;;16.10;99.90;;;;;;5071447;28;20199;-82
2024/04/09 06:18:37;;;;;;;12.33;7.50;;;16.20;99.90;;;;;;5071129;28;20197;-81
2024/04/09 06:21:24;;;;;;;14.30;7.50;;;16.40;99.90;;;;;;5072427;28;20197;-81
2024/04/09 06:24:10;;;;;;;17.47;7.43;;;16.50;99.90;;;;;;5057389;28;20198;-81
2024/04/09 06:26:57;;;;;;;11.40;7.03;;;16.70;99.90;;;;;;5070855;28;20634;-81
2024/04/09 06:29:43;;;;;;;13.13;7.50;;;16.90;99.90;;;;;;5057262;28;20193;-81
2024/04/09 06:32:30;;;;;;;13.20;7.40;;;17.00;99.90;;;;;;5071159;28;20221;-81
2024/04/09 06:35:16;;;;;;;11.67;6.90;;;17.20;99.90;;;;;;5070724;28;20217;-82
2024/04/09 06:38:03;;;;;;;10.37;6.27;;;17.30;99.90;;;;;;5057138;28;20190;-81
2024/04/09 06:40:53;;;;;;;11.53;6.03;;;17.30;99.90;;;;;;5076284;28;20233;-81
2024/04/09 06:43:40;;;;;;;11.87;6.03;;;17.40;99.90;;;;;;5063418;28;20661;-81
2024/04/09 06:46:28;;;;;;;9.47;6.03;;;17.50;99.90;;;;;;5063979;28;20190;-81
2024/04/09 06:49:15;;;;;;;8.93;5.93;;;17.60;99.90;;;;;;5077062;28;20685;-82
2024/04/09 06:52:02;;;;;;;7.67;5.70;;;17.80;99.90;;;;;;5062387;28;20224;-82
2024/04/09 06:54:48;;;;;;;8.00;5.77;;;17.90;99.90;;;;;;5076639;28;20196;-82
2024/04/09 06:57:35;;;;;;;12.73;5.97;;;18.00;99.90;;;;;;5075806;28;20190;-82
2024/04/09 07:00:22;;;;;;;11.47;5.97;;;18.20;99.90;;;;;;5077280;28;20197;-82
2024/04/09 07:03:10;;;;;;;10.63;5.90;;;18.30;99.90;;;;;;5075991;28;20192;-82
2024/04/09 07:05:57;;;;;;;12.60;5.90;;;18.50;99.90;;;;;;5077098;28;20688;-81
2024/04/09 07:08:45;;;;;;;10.13;6.00;;;18.60;99.90;;;;;;5076510;28;20192;-82
2024/04/09 07:11:31;;;;;;;10.40;5.73;;;18.80;99.90;;;;;;5077046;28;20206;-81
2024/04/09 07:14:18;;;;;;;14.90;6.23;;;18.80;99.90;;;;;;5063146;28;20197;-81
2024/04/09 07:17:05;;;;;;;17.33;6.67;;;19.00;99.90;;;;;;5076929;28;20267;-82
2024/04/09 07:19:55;;;;;;;11.90;5.20;;;19.20;99.90;;;;;;5075874;28;20768;-82
2024/04/09 07:22:42;;;;;;;10.67;5.70;;;19.30;99.90;;;;;;5077432;28;20197;-82
2024/04/09 07:25:29;;;;;;;11.80;5.60;;;19.50;99.90;;;;;;5063053;28;20190;-82
2024/04/09 07:28:16;;;;;;;10.97;5.20;;;19.70;99.90;;;;;;5076512;28;20189;-81
2024/04/09 07:31:05;;;;;;;9.07;5.13;;;19.90;99.90;;;;;;5061974;28;20202;-82
2024/04/09 07:33:52;;;;;;;9.87;5.10;;;20.00;99.90;;;;;;5076728;28;20227;-81
2024/04/09 07:36:38;;;;;;;7.57;5.00;;;20.10;99.90;;;;;;5062280;28;20277;-82
2024/04/09 07:39:25;;;;;;;8.63;5.30;;;20.30;99.90;;;;;;5075588;28;20652;-82
2024/04/09 07:42:12;;;;;;;9.33;4.40;;;20.50;99.90;;;;;;5069956;28;20247;-82
2024/04/09 07:44:58;;;;;;;8.17;4.70;;;20.70;99.90;;;;;;5069685;28;20194;-82
2024/04/09 07:47:49;;;;;;;8.17;4.47;;;20.90;99.90;;;;;;5068786;28;20187;-82
2024/04/09 07:50:35;;;;;;;10.77;4.70;;;21.00;99.90;;;;;;5070112;28;20686;-82
2024/04/09 07:53:22;;;;;;;7.40;4.50;;;21.20;99.90;;;;;;5069810;28;20253;-82
2024/04/09 07:56:09;;;;;;;8.90;5.13;;;21.40;99.90;;;;;;5069955;28;20200;-82
2024/04/09 07:58:55;;;;;;;7.73;4.70;;;21.60;99.90;;;;;;5069799;28;20190;-82
2024/04/09 08:01:42;;;;;;;8.53;4.63;;;21.60;99.90;;;;;;5056657;28;20198;-82
2024/04/09 08:04:28;;;;;;;7.03;4.23;;;21.70;99.90;;;;;;5072220;28;20220;-82
2024/04/09 08:07:15;;;;;;;11.13;4.53;;;21.80;99.90;;;;;;5074414;28;20548;-82
2024/04/09 08:10:03;;;;;;;8.13;4.30;;;22.00;99.90;;;;;;5059840;28;20193;-82
2024/04/09 08:12:50;;;;;;;9.03;4.13;;;22.30;99.90;;;;;;5073574;28;20214;-82
2024/04/09 08:15:36;;;;;;;8.37;4.50;;;22.40;99.90;;;;;;5061128;28;20284;-82
2024/04/09 08:18:25;;;;;;;10.20;4.47;;;22.80;99.90;;;;;;5074827;28;20186;-82
2024/04/09 08:21:12;;;;;;;7.70;4.17;;;23.10;99.90;;;;;;5073619;28;20569;-82
2024/04/09 08:23:58;;;;;;;5.83;4.03;;;23.30;99.90;;;;;;5073691;28;20194;-82
2024/04/09 08:26:45;;;;;;;7.55;4.03;;;23.50;99.90;;;;;;5060821;28;20205;-82
2024/04/09 08:29:32;;;;;;;7.03;4.10;;;24.00;99.90;;;;;;5060101;28;20190;-82
2024/04/09 08:32:18;;;;;;;6.90;3.70;;;24.70;99.90;;;;;;5073296;28;20232;-82
2024/04/09 08:35:05;;;;;;;5.72;3.95;;;25.20;99.90;;;;;;5074301;28;20217;-82
2024/04/09 08:37:51;;;;;;;7.60;4.03;;;25.90;99.90;;;;;;5073688;28;20564;-83
2024/04/09 08:40:38;;;;;;;8.95;4.10;;;26.50;99.90;;;;;;5062387;28;20228;-82
2024/04/09 08:43:27;;;;;;;6.63;3.75;;;26.60;99.50;;;;;;5079429;28;20197;-82
2024/04/09 08:46:13;;;;;;;6.13;4.18;;;26.80;97.70;;;;;;5079310;28;20197;-83
2024/04/09 08:49:01;;;;;;;9.70;3.90;;;27.10;96.30;;;;;;5080932;28;20216;-83
2024/04/09 08:51:47;;;;;;;6.43;3.60;;;27.30;95.10;;;;;;5077780;28;20193;-83
2024/04/09 08:54:34;;;;;;;5.20;3.28;;;27.70;94.70;;;;;;5079695;28;20194;-82
2024/04/09 08:57:21;;;;;;;7.30;3.35;;;28.20;91.50;;;;;;5079703;28;20189;-83
2024/04/09 09:00:08;;;;;;;8.30;3.10;;;28.40;89.90;;;;;;5078272;28;20181;-82
2024/04/09 09:02:54;;;;;;;5.93;3.25;;;28.20;86.90;;;;;;5078840;28;20192;-82
2024/04/09 09:05:41;;;;;;;7.50;3.28;;;28.30;86.20;;;;;;5080010;28;20206;-83
2024/04/09 09:08:39;;;;;;;5.60;2.70;;;28.50;86.00;;;;;;5079475;28;20194;-82
2024/04/09 09:11:25;;;;;;;8.20;3.00;;;28.80;84.20;;;;;;5078400;28;20679;-82
2024/04/09 09:14:12;;;;;;;4.07;2.58;;;29.40;84.50;;;;;;5079826;28;20221;-83
2024/04/09 09:17:11;;;;;;;5.15;2.80;;;29.40;78.10;;;;;;5064610;28;20193;-83
2024/04/09 09:20:08;;;;;;;6.20;2.67;;;29.50;75.90;;;;;;5079294;28;20271;-83
2024/04/09 09:22:55;;;;;;;5.38;2.47;;;29.70;74.10;;;;;;5077964;28;20657;-83
2024/04/09 09:25:42;;;;;;;5.20;2.40;;;29.50;72.50;;;;;;5078704;28;20212;-83
2024/04/09 09:28:28;;;;;;;4.07;2.30;;;29.70;70.60;;;;;;5079066;28;20189;-82
2024/04/09 09:31:15;;;;;;;7.28;2.58;;;29.60;69.40;;;;;;5050963;28;20190;-83
2024/04/09 09:34:07;;;;;;;4.72;2.42;;;29.90;70.80;;;;;;5078434;28;20221;-83
2024/04/09 09:36:58;;;;;;;4.03;2.20;;;30.30;68.70;;;;;;5065669;28;20194;-83
2024/04/09 09:39:46;;;;;;;4.28;2.13;;;30.80;67.00;;;;;;5078727;28;20657;-82
2024/04/09 09:42:33;;;;;;;4.03;1.90;;;30.40;63.90;;;;;;5064847;28;20217;-82
2024/04/09 09:45:23;;;;;;;4.25;2.00;;;30.00;64.50;;;;;;5078372;28;21074;-83
2024/04/09 09:48:12;;;;;;;4.65;2.03;;;30.20;64.30;;;;;;5078083;28;20195;-83
2024/04/09 09:50:59;;;;;;;4.13;2.40;;;30.60;64.90;;;;;;5050950;28;20221;-82
2024/04/09 09:53:46;;;;;;;5.50;2.10;;;30.30;62.90;;;;;;5064615;28;20594;-82
2024/04/09 09:56:34;;;;;;;6.90;2.13;;;30.60;62.60;;;;;;5065291;28;20557;-83
2024/04/09 09:59:21;;;;;;;3.70;2.00;;;31.20;61.10;;;;;;5078654;28;20189;-82
2024/04/09 10:02:09;;;;;;;4.35;1.90;;;31.70;59.00;;;;;;5050119;28;20193;-82
2024/04/09 10:04:56;;;;;;;3.75;2.10;;;31.60;59.70;;;;;;5076804;28;20210;-82
2024/04/09 10:07:47;;;;;;;5.88;1.90;;;31.80;58.90;;;;;;5078293;28;20199;-83
2024/04/09 10:10:34;;;;;;;3.50;1.95;;;32.40;58.00;;;;;;5077218;28;20202;-82
2024/04/09 10:13:27;;;;;;;2.97;1.80;;;32.50;57.60;;;;;;5078040;28;20225;-82
2024/04/09 10:16:18;;;;;;;5.47;2.00;;;32.70;58.30;;;;;;5064608;28;20205;-82
2024/04/09 10:19:04;;;;;;;3.63;2.00;;;33.00;57.60;;;;;;5076668;28;20205;-82
2024/04/09 10:21:51;;;;;;;6.05;2.03;;;33.10;56.20;;;;;;5077486;28;20305;-82
2024/04/09 10:24:38;;;;;;;6.72;2.03;;;33.00;56.00;;;;;;5062835;28;20192;-82
2024/04/09 10:27:25;;;;;;;4.57;2.13;;;32.40;56.40;;;;;;5076708;28;20201;-82
2024/04/09 10:30:17;;;;;;;4.50;2.00;;;32.10;58.00;;;;;;5049826;28;20585;-82
2024/04/09 10:33:05;;;;;;;5.75;2.00;;;33.00;58.10;;;;;;5063777;28;20225;-83
2024/04/09 10:35:54;;;;;;;2.40;1.77;;;33.70;57.00;;;;;;5077088;28;20217;-82
2024/04/09 10:38:43;;;;;;;2.90;1.90;;;33.80;56.20;;;;;;5063864;28;20194;-82
2024/04/09 10:41:32;;;;;;;7.32;2.40;;;33.50;55.10;;;;;;5077442;28;20251;-82
2024/04/09 10:44:18;;;;;;;5.15;2.22;;;33.60;55.10;;;;;;5077678;28;20196;-83
2024/04/09 10:47:09;;;;;;;4.93;2.20;;;34.20;55.80;;;;;;5077413;28;20569;-82
2024/04/09 10:49:56;;;;;;;5.22;2.20;;;34.60;54.90;;;;;;5043131;28;20224;-83
2024/04/09 10:52:42;;;;;;;6.82;2.92;;;35.00;54.20;;;;;;5074371;28;20711;-83
2024/04/09 10:55:29;;;;;;;3.65;2.55;;;35.10;53.80;;;;;;5076789;28;20197;-82
2024/04/09 10:58:17;;;;;;;4.32;2.33;;;35.60;54.60;;;;;;5077868;28;20185;-82
2024/04/09 11:01:05;;;;;;;5.55;2.60;;;36.30;54.50;;;;;;5077354;28;20203;-82
2024/04/09 11:03:52;;;;;;;2.70;2.10;;;36.30;52.30;;;;;;5063348;28;20198;-83
2024/04/09 11:06:41;;;;;;;4.07;2.45;;;36.40;52.80;;;;;;5078421;28;20250;-83
2024/04/09 11:09:29;;;;;;;4.65;2.50;;;36.60;52.30;;;;;;5075925;28;20189;-83
2024/04/09 11:12:15;;;;;;;4.70;2.42;;;34.90;53.70;;;;;;5062134;28;20548;-83
2024/04/09 11:15:03;;;;;;;5.05;2.58;;;35.30;54.30;;;;;;5076388;28;20221;-83
2024/04/09 11:17:49;;;;;;;4.00;2.45;;;35.80;54.50;;;;;;5079947;28;20185;-82
2024/04/09 11:20:36;;;;;;;5.10;2.20;;;35.90;52.30;;;;;;5075045;28;20386;-83
2024/04/09 11:23:23;;;;;;;3.17;2.40;;;35.80;52.90;;;;;;5077074;28;20204;-82
2024/04/09 11:26:10;;;;;;;3.05;2.45;;;35.70;53.50;;;;;;5056122;28;20561;-82
2024/04/09 11:28:57;;;;;;;5.05;2.30;;;35.40;52.90;;;;;;5076449;28;20561;-83
2024/04/09 11:31:44;;;;;;;3.38;2.10;;;35.90;53.80;;;;;;5076223;28;20190;-82
2024/04/09 11:34:31;;;;;;;3.70;2.13;;;36.60;53.60;;;;;;5076753;28;20220;-83
2024/04/09 11:37:21;;;;;;;5.60;2.35;;;37.10;51.70;;;;;;5076145;28;20185;-82
2024/04/09 11:40:09;;;;;;;6.47;2.70;;;37.00;51.50;;;;;;5075846;28;20671;-82
2024/04/09 11:42:58;;;;;;;4.25;2.33;;;37.10;51.40;;;;;;5076256;28;20671;-82
2024/04/09 11:45:45;;;;;;;5.38;2.13;;;37.70;50.60;;;;;;5076681;28;20566;-82
2024/04/09 11:48:32;;;;;;;3.65;2.10;;;37.80;49.90;;;;;;5076579;28;20200;-82
2024/04/09 11:51:18;;;;;;;3.88;2.30;;;38.60;49.30;;;;;;5075552;28;20189;-82
2024/04/09 11:54:05;;;;;;;4.03;2.28;;;37.80;49.60;;;;;;5074599;28;20217;-83
2024/04/09 11:56:51;;;;;;;3.80;2.30;;;38.30;49.30;;;;;;5075840;28;20194;-82
2024/04/09 11:59:38;;;;;;;3.88;2.40;;;38.20;48.30;;;;;;5061607;28;20193;-83
2024/04/09 12:02:24;;;;;;;4.38;2.20;;;38.20;49.30;;;;;;5061617;28;20196;-83
2024/04/09 12:05:12;;;;;;;3.55;2.05;;;38.80;47.40;;;;;;5076356;28;20711;-83
2024/04/09 12:07:59;;;;;;;4.45;2.10;;;38.30;47.50;;;;;;5076985;28;20573;-82
2024/04/09 12:10:46;;;;;;;4.18;1.80;;;38.50;47.10;;;;;;5062504;28;20197;-81
2024/04/09 12:13:32;;;;;;;5.15;1.98;;;38.30;47.20;;;;;;5062093;28;20603;-81
2024/04/09 12:16:19;;;;;;;4.78;1.80;;;37.60;47.60;;;;;;5061975;28;20654;-82
2024/04/09 12:19:05;;;;;;;2.83;2.05;;;37.80;47.80;;;;;;5062203;28;20209;-81
2024/04/09 12:21:52;;;;;;;5.45;2.40;;;37.80;47.90;;;;;;5075768;28;20653;-82
2024/04/09 12:24:38;;;;;;;4.43;2.47;;;37.50;48.70;;;;;;5062259;28;20566;-82
2024/04/09 12:27:25;;;;;;;5.78;2.17;;;37.70;48.30;;;;;;5076207;28;20192;-82
2024/04/09 12:30:13;;;;;;;6.93;2.45;;;37.50;48.20;;;;;;5076382;28;20205;-82
2024/04/09 12:33:00;;;;;;;4.25;2.30;;;36.70;48.50;;;;;;5074765;28;20220;-82
2024/04/09 12:35:47;;;;;;;6.05;2.22;;;37.00;49.90;;;;;;5076169;28;20595;-82
2024/04/09 12:38:34;;;;;;;3.88;2.35;;;37.60;48.40;;;;;;5075751;28;20189;-82
2024/04/09 12:41:21;;;;;;;5.70;2.50;;;37.50;49.00;;;;;;5062787;28;20290;-82
2024/04/09 12:44:07;;;;;;;4.88;2.60;;;37.20;49.50;;;;;;5075815;28;20194;-82
2024/04/09 12:46:53;;;;;;;8.07;2.50;;;37.20;49.70;;;;;;5076088;28;20190;-82
2024/04/09 12:49:40;;;;;;;3.58;2.25;;;37.20;49.10;;;;;;5075400;28;20276;-82
2024/04/09 12:52:26;;;;;;;3.83;2.35;;;37.30;49.10;;;;;;5064903;28;20547;-83
2024/04/09 12:55:13;;;;;;;3.85;2.25;;;37.50;48.90;;;;;;5079627;28;20190;-82
2024/04/09 12:57:59;;;;;;;4.45;2.20;;;37.00;48.30;;;;;;5080215;28;20695;-82
2024/04/09 13:00:45;;;;;;;3.92;2.13;;;37.10;49.00;;;;;;5078957;28;20254;-83
2024/04/09 13:03:32;;;;;;;6.30;2.20;;;36.60;48.50;;;;;;5078382;28;20248;-82
2024/04/09 13:06:18;;;;;;;3.47;2.20;;;35.50;49.80;;;;;;5078789;28;20242;-82
2024/04/09 13:09:07;;;;;;;5.25;2.17;;;35.20;50.00;;;;;;5079122;28;20215;-82
2024/04/09 13:11:54;;;;;;;3.33;2.40;;;34.80;51.00;;;;;;5066657;28;20190;-81
2024/04/09 13:14:40;;;;;;;5.82;2.20;;;34.50;51.20;;;;;;5065531;28;20193;-82
2024/04/09 13:17:26;;;;;;;5.38;2.13;;;34.30;52.40;;;;;;5078708;28;20189;-82
2024/04/09 13:20:13;;;;;;;12.55;5.07;;;34.30;51.70;;;;;;5064213;28;20213;-83
2024/04/09 13:22:59;;;;;;;3.92;2.30;;;33.70;52.50;;;;;;5078718;28;20196;-82
2024/04/09 13:25:46;;;;;;;4.00;2.10;;;33.40;52.80;;;;;;5065183;28;20200;-82
2024/04/09 13:28:32;;;;;;;4.25;2.58;;;32.70;53.10;;;;;;5077582;28;20570;-83
2024/04/09 13:31:19;;;;;;;6.03;2.53;;;32.40;53.50;;;;;;5079104;28;20190;-83
2024/04/09 13:34:06;;;;;;;8.82;2.70;;;32.40;53.90;;;;;;5076895;28;20228;-82
2024/04/09 13:36:52;;;;;;;4.85;2.20;;;32.30;53.50;;;;;;5079002;28;20526;-83
2024/04/09 13:39:38;;;;;;;3.92;2.08;;;32.30;54.10;;;;;;5078092;28;20190;-83
2024/04/09 13:42:40;;;;;;;4.68;2.00;;;32.20;53.40;;;;;;5071684;28;20230;-82
2024/04/09 13:45:27;;;;;;;4.32;2.38;;;31.90;53.80;;;;;;5074513;28;20560;-81
2024/04/09 13:48:13;;;;;;;5.05;2.50;;;31.60;53.70;;;;;;5073135;28;20212;-82
2024/04/09 13:50:59;;;;;;;5.50;2.30;;;31.70;54.50;;;;;;5073016;28;20292;-82
2024/04/09 13:53:46;;;;;;;3.13;2.10;;;31.80;54.30;;;;;;5058609;28;20336;-82
2024/04/09 13:56:32;;;;;;;5.47;2.42;;;31.70;55.00;;;;;;5071326;28;20202;-82
2024/04/09 13:59:18;;;;;;;3.30;1.83;;;32.00;54.40;;;;;;5072333;28;20190;-82
2024/04/09 14:02:05;;;;;;;4.07;2.20;;;32.10;54.00;;;;;;5072003;28;20182;-82
2024/04/09 14:04:52;;;;;;;6.25;2.33;;;32.20;53.90;;;;;;5071573;28;20693;-82
2024/04/09 14:07:38;;;;;;;3.78;2.08;;;32.50;53.60;;;;;;5071634;28;20190;-82
2024/04/09 14:10:25;;;;;;;4.15;2.15;;;32.30;53.80;;;;;;5071808;28;20259;-81
2024/04/09 14:13:12;;;;;;;3.75;2.30;;;32.00;54.20;;;;;;5070092;28;20698;-81
2024/04/09 14:15:58;;;;;;;5.47;2.42;;;32.00;54.20;;;;;;5057572;28;20244;-80
2024/04/09 14:18:46;;;;;;;5.65;2.40;;;31.30;54.70;;;;;;5070449;28;20190;-79
2024/04/09 14:21:33;;;;;;;3.58;2.47;;;31.30;55.70;;;;;;5071700;28;20212;-77
2024/04/09 14:24:20;;;;;;;7.25;2.60;;;31.60;57.00;;;;;;5070385;28;20190;-78
2024/04/09 14:27:07;;;;;;;4.50;1.88;;;31.90;54.60;;;;;;5071312;28;20200;-80
2024/04/09 14:29:53;;;;;;;5.63;2.20;;;32.40;53.80;;;;;;5071344;28;20194;-77
2024/04/09 14:32:40;;;;;;;3.70;2.03;;;32.60;53.40;;;;;;5071523;28;20679;-78
2024/04/09 14:35:26;;;;;;;3.33;1.90;;;32.90;53.60;;;;;;5069768;28;20216;-79
2024/04/09 14:38:12;;;;;;;3.83;2.03;;;32.60;53.80;;;;;;5071409;28;20201;-79
2024/04/09 14:40:58;;;;;;;3.83;2.00;;;32.30;53.90;;;;;;5076860;28;20281;-79
2024/04/09 14:47:52;;;;;;;4.07;2.22;;;31.90;54.50;;;;;;5091718;28;20204;-81
2024/04/09 14:50:43;;;;;;;3.45;2.00;;;32.10;54.10;;;;;;5076648;28;20708;-81
2024/04/09 14:53:30;;;;;;;3.88;2.10;;;32.20;53.70;;;;;;5062825;28;20225;-81
2024/04/09 14:56:16;;;;;;;5.90;2.25;;;32.40;53.30;;;;;;5076533;28;20189;-80
2024/04/09 14:59:03;;;;;;;6.65;2.20;;;32.80;53.00;;;;;;5076663;28;20204;-80
2024/04/09 15:01:49;;;;;;;4.55;2.20;;;33.20;52.30;;;;;;5076095;28;20594;-81